Click on the image to enlargeKlik op de webcam foto voor een grotere versie
Or click here
for the webcam videoo


Visit our other website:Website of another weatherstation

Weerstation
Wilsele-Putkapel:Website of another weatherstation



Nearby Airports - METAR Reports

   
EBBR - Vaartkom-Leuven
Updated: 14-05-2021 23:20
Few Clouds    Wind: West 6 km/h
Few Clouds
Wind: Wind: West 6 km/h
Temperature: 10°C
Windchill: 9°C
Dew Point: 8°C
Humidity: 88%
Barometer: 1008 hPa
Clouds: Few Clouds
Visibility: More than 10 km
Cloud details: Few Clouds 1127.8 m
EBBR 142120Z 28003KT 250V310 9999 FEW037 10/08 Q1008 NOSIG
EBAW - Antwerp
Updated: 14-05-2021 23:20
Few Clouds    Wind: West 9 km/h
Few Clouds
Wind: Wind: West 9 km/h
Temperature: 10°C
Windchill: 9°C
Dew Point: 8°C
Humidity: 88%
Barometer: 1008 hPa
Clouds: Few Clouds
Visibility: 6 km
Cloud details: Few Clouds 213.4 m
EBAW 142120Z AUTO 26005KT 6000 // FEW007/// 10/08 Q1008
EBLG - Li├Ęge
Updated: 14-05-2021 23:20
Mostly Cloudy    Wind: SSE 9 km/h
Mostly Cloudy
Wind: Wind: SSE 9 km/h
Temperature: 10°C
Windchill: 9°C
Dew Point: 8°C
Humidity: 88%
Barometer: 1008 hPa
Clouds: Mostly Cloudy
Visibility: More than 10 km
Cloud details: Mostly Cloudy 823 m
EBLG 142120Z 16005KT 110V190 9999 BKN027 10/08 Q1008 NOSIG
EBCV - Mons/Bergen
Updated: 14-05-2021 23:25
Mostly Cloudy    Wind: NW 9 km/h
Mostly Cloudy
Wind: Wind: NW 9 km/h
Temperature: 10°C
Windchill: 9°C
Dew Point: 9°C
Humidity: 94%
Barometer: 1008 hPa
Clouds: Mostly Cloudy
Visibility: 5 km
Cloud details: Partly Cloudy 518.2 m,
Mostly Cloudy 1889.8 m
EBCV 142125Z AUTO 31005KT 5000 SCT017/// BKN062/// 10/09 Q1008 WHT
EHBK - Maastricht
Updated: 14-05-2021 23:25
Clear    Wind: SSW 11 km/h
Clear
Wind: Wind: SSW 11 km/h
Temperature: 8°C
Windchill: 6°C
Dew Point: 8°C
Humidity: 100%
Barometer: 1008 hPa
Clouds: Clear
Visibility: More than 10 km
Cloud details: Clear
EHBK 142125Z AUTO 20006KT 9999 NCD 08/08 Q1008
ELLX - Luxemburg
Updated: 14-05-2021 23:20
Partly Cloudy    Wind: SSW 9 km/h
Partly Cloudy
Wind: Wind: SSW 9 km/h
Temperature: 8°C
Windchill: 7°C
Dew Point: 7°C
Humidity: 93%
Barometer: 1009 hPa
Clouds: Partly Cloudy
Visibility: More than 10 km
Cloud details: Few Clouds 1432.6 m,
Partly Cloudy 1828.8 m
ELLX 142120Z 20005KT 170V230 9999 FEW047 SCT060 08/07 Q1009 NOSIG
EBOS - Oostende
Updated: 14-05-2021 23:20
Mostly Cloudy    Wind: varies 4 km/h
Mostly Cloudy
Wind: Wind: varies 4 km/h
Temperature: 9°C
Dew Point: 6°C
Humidity: 82%
Barometer: 1009 hPa
Clouds: Mostly Cloudy
Visibility: More than 10 km
Cloud details: Partly Cloudy 487.7 m,
Mostly Cloudy 548.6 m
EBOS 142120Z VRB02KT 9999 SCT016 BKN018 09/06 Q1009 NOSIG
  

Script developed by  Saratoga-weather.org Adapted for the template by  Weerstation Leuven

You find our weather info also at:

ambientweather.net/

UK Metoffice

WeatherCloud

European Weather Network

Weather Underground

Benelux Weather Network

AWEKAS

WeatherlinkIP

Citizen Weather Observer Program (CWOP)

HAMweather, WeatherForYou, PWS Weather

Equipment we use:

Weather-station
Davis VUE

Weather-program
Meteobridge

Weather-server
Nano-SD

Provider
Robohost

Davis VUE

Meteobridge

Nano-SD

Robohost